sensor_id;sensor_type;location;lat;lon;timestamp;temperature;humidity
516;DHT22;244;48.508;9.052;2022-11-22T00:00:22;7.50;28.50
516;DHT22;244;48.508;9.052;2022-11-22T00:02:50;7.50;28.50
516;DHT22;244;48.508;9.052;2022-11-22T00:05:18;7.50;28.40
516;DHT22;244;48.508;9.052;2022-11-22T00:07:45;7.50;28.20
516;DHT22;244;48.508;9.052;2022-11-22T00:10:14;7.50;28.20
516;DHT22;244;48.508;9.052;2022-11-22T00:12:42;7.50;28.20
516;DHT22;244;48.508;9.052;2022-11-22T00:15:10;7.50;28.80
516;DHT22;244;48.508;9.052;2022-11-22T00:17:37;7.50;28.20
516;DHT22;244;48.508;9.052;2022-11-22T00:20:06;7.50;28.20
516;DHT22;244;48.508;9.052;2022-11-22T00:22:36;7.50;28.10
516;DHT22;244;48.508;9.052;2022-11-22T00:25:04;7.60;28.20
516;DHT22;244;48.508;9.052;2022-11-22T00:27:32;7.50;28.10
516;DHT22;244;48.508;9.052;2022-11-22T00:29:59;7.50;28.10
516;DHT22;244;48.508;9.052;2022-11-22T00:32:25;7.50;28.30
516;DHT22;244;48.508;9.052;2022-11-22T00:34:52;7.50;28.40
516;DHT22;244;48.508;9.052;2022-11-22T00:37:19;7.50;29.00
516;DHT22;244;48.508;9.052;2022-11-22T00:39:48;7.60;28.40
516;DHT22;244;48.508;9.052;2022-11-22T00:42:15;7.60;28.20
516;DHT22;244;48.508;9.052;2022-11-22T00:44:42;7.60;28.70
516;DHT22;244;48.508;9.052;2022-11-22T00:47:09;7.60;28.10
516;DHT22;244;48.508;9.052;2022-11-22T00:49:36;7.60;28.20
516;DHT22;244;48.508;9.052;2022-11-22T00:52:03;7.60;28.20
516;DHT22;244;48.508;9.052;2022-11-22T00:54:30;7.60;28.40
516;DHT22;244;48.508;9.052;2022-11-22T00:56:58;7.60;28.50
516;DHT22;244;48.508;9.052;2022-11-22T00:59:25;7.70;28.50
516;DHT22;244;48.508;9.052;2022-11-22T01:01:52;7.70;28.50
516;DHT22;244;48.508;9.052;2022-11-22T01:04:19;7.70;28.40
516;DHT22;244;48.508;9.052;2022-11-22T01:06:46;7.70;28.30
516;DHT22;244;48.508;9.052;2022-11-22T01:09:17;8.00;28.40
516;DHT22;244;48.508;9.052;2022-11-22T01:11:44;7.80;28.30
516;DHT22;244;48.508;9.052;2022-11-22T01:14:13;7.80;28.20
516;DHT22;244;48.508;9.052;2022-11-22T01:16:41;7.80;28.20
516;DHT22;244;48.508;9.052;2022-11-22T01:19:08;7.90;28.30
516;DHT22;244;48.508;9.052;2022-11-22T01:21:35;7.90;28.30
516;DHT22;244;48.508;9.052;2022-11-22T01:24:03;7.90;28.80
516;DHT22;244;48.508;9.052;2022-11-22T01:26:29;7.80;28.00
516;DHT22;244;48.508;9.052;2022-11-22T01:28:56;7.80;28.00
516;DHT22;244;48.508;9.052;2022-11-22T01:31:25;7.80;27.90
516;DHT22;244;48.508;9.052;2022-11-22T01:33:52;7.80;27.80
516;DHT22;244;48.508;9.052;2022-11-22T01:36:19;7.80;27.80
516;DHT22;244;48.508;9.052;2022-11-22T01:38:45;7.80;27.80
516;DHT22;244;48.508;9.052;2022-11-22T01:41:12;7.80;27.90
516;DHT22;244;48.508;9.052;2022-11-22T01:43:39;7.80;28.00
516;DHT22;244;48.508;9.052;2022-11-22T01:46:09;7.80;28.00
516;DHT22;244;48.508;9.052;2022-11-22T01:48:48;7.70;27.80
516;DHT22;244;48.508;9.052;2022-11-22T01:51:20;7.70;27.90
516;DHT22;244;48.508;9.052;2022-11-22T01:53:51;7.70;28.10
516;DHT22;244;48.508;9.052;2022-11-22T01:56:19;7.70;28.20
516;DHT22;244;48.508;9.052;2022-11-22T01:58:52;7.70;28.90
516;DHT22;244;48.508;9.052;2022-11-22T02:01:20;7.70;28.30
516;DHT22;244;48.508;9.052;2022-11-22T02:03:50;7.70;28.30
516;DHT22;244;48.508;9.052;2022-11-22T02:06:19;7.70;28.80
516;DHT22;244;48.508;9.052;2022-11-22T02:08:53;7.70;28.10
516;DHT22;244;48.508;9.052;2022-11-22T02:11:22;7.70;28.10
516;DHT22;244;48.508;9.052;2022-11-22T02:13:50;7.70;28.10
516;DHT22;244;48.508;9.052;2022-11-22T02:16:18;7.70;28.10
516;DHT22;244;48.508;9.052;2022-11-22T02:18:45;7.80;28.10
516;DHT22;244;48.508;9.052;2022-11-22T02:21:14;7.80;28.10
516;DHT22;244;48.508;9.052;2022-11-22T02:23:48;7.80;28.20
516;DHT22;244;48.508;9.052;2022-11-22T02:26:20;7.80;28.80
516;DHT22;244;48.508;9.052;2022-11-22T02:28:50;7.80;28.20
516;DHT22;244;48.508;9.052;2022-11-22T02:31:37;7.70;28.70
516;DHT22;244;48.508;9.052;2022-11-22T02:34:05;7.80;28.10
516;DHT22;244;48.508;9.052;2022-11-22T02:36:35;7.80;28.20
516;DHT22;244;48.508;9.052;2022-11-22T02:39:03;7.70;28.10
516;DHT22;244;48.508;9.052;2022-11-22T02:41:33;7.70;28.10
516;DHT22;244;48.508;9.052;2022-11-22T02:44:01;7.70;28.80
516;DHT22;244;48.508;9.052;2022-11-22T02:46:28;7.60;28.20
516;DHT22;244;48.508;9.052;2022-11-22T02:48:54;7.60;28.00
516;DHT22;244;48.508;9.052;2022-11-22T02:51:21;7.50;27.90
516;DHT22;244;48.508;9.052;2022-11-22T02:53:49;7.50;27.90
516;DHT22;244;48.508;9.052;2022-11-22T02:56:18;7.40;27.70
516;DHT22;244;48.508;9.052;2022-11-22T02:58:46;7.40;27.60
516;DHT22;244;48.508;9.052;2022-11-22T03:01:13;7.30;27.50
516;DHT22;244;48.508;9.052;2022-11-22T03:03:40;7.30;28.10
516;DHT22;244;48.508;9.052;2022-11-22T03:06:07;7.30;27.60
516;DHT22;244;48.508;9.052;2022-11-22T03:08:34;7.30;27.80
516;DHT22;244;48.508;9.052;2022-11-22T03:11:01;7.20;27.90
516;DHT22;244;48.508;9.052;2022-11-22T03:13:28;7.20;27.90
516;DHT22;244;48.508;9.052;2022-11-22T03:15:56;7.20;27.90
516;DHT22;244;48.508;9.052;2022-11-22T03:18:23;7.20;27.90
516;DHT22;244;48.508;9.052;2022-11-22T03:20:50;7.20;27.90
516;DHT22;244;48.508;9.052;2022-11-22T03:23:17;7.20;27.80
516;DHT22;244;48.508;9.052;2022-11-22T03:25:44;7.20;27.80
516;DHT22;244;48.508;9.052;2022-11-22T03:28:10;7.20;28.40
516;DHT22;244;48.508;9.052;2022-11-22T03:30:41;7.20;28.40
516;DHT22;244;48.508;9.052;2022-11-22T03:33:09;7.10;28.50
516;DHT22;244;48.508;9.052;2022-11-22T03:35:36;7.20;28.60
516;DHT22;244;48.508;9.052;2022-11-22T03:38:04;7.20;28.10
516;DHT22;244;48.508;9.052;2022-11-22T03:40:31;7.20;28.00
516;DHT22;244;48.508;9.052;2022-11-22T03:42:59;7.20;27.90
516;DHT22;244;48.508;9.052;2022-11-22T03:45:27;7.20;27.90
516;DHT22;244;48.508;9.052;2022-11-22T03:47:55;7.10;27.80
516;DHT22;244;48.508;9.052;2022-11-22T03:50:24;7.10;27.80
516;DHT22;244;48.508;9.052;2022-11-22T03:52:51;7.10;27.80
516;DHT22;244;48.508;9.052;2022-11-22T03:55:18;7.00;27.80
516;DHT22;244;48.508;9.052;2022-11-22T03:57:45;7.10;27.70
516;DHT22;244;48.508;9.052;2022-11-22T04:00:12;7.00;27.70
516;DHT22;244;48.508;9.052;2022-11-22T04:02:39;7.00;27.70
516;DHT22;244;48.508;9.052;2022-11-22T04:05:07;7.00;27.70
516;DHT22;244;48.508;9.052;2022-11-22T04:07:35;7.00;27.60
516;DHT22;244;48.508;9.052;2022-11-22T04:10:03;7.00;27.60
516;DHT22;244;48.508;9.052;2022-11-22T04:12:30;6.90;27.50
516;DHT22;244;48.508;9.052;2022-11-22T04:14:58;6.90;27.60
516;DHT22;244;48.508;9.052;2022-11-22T04:17:33;6.90;27.70
516;DHT22;244;48.508;9.052;2022-11-22T04:20:08;6.90;27.70
516;DHT22;244;48.508;9.052;2022-11-22T04:22:58;6.80;27.70
516;DHT22;244;48.508;9.052;2022-11-22T04:25:27;6.80;27.90
516;DHT22;244;48.508;9.052;2022-11-22T04:27:53;6.90;28.00
516;DHT22;244;48.508;9.052;2022-11-22T04:30:20;6.90;28.00
516;DHT22;244;48.508;9.052;2022-11-22T04:33:07;7.00;28.60
516;DHT22;244;48.508;9.052;2022-11-22T04:35:33;7.00;28.00
516;DHT22;244;48.508;9.052;2022-11-22T04:38:02;7.00;28.00
516;DHT22;244;48.508;9.052;2022-11-22T04:40:29;7.00;27.90
516;DHT22;244;48.508;9.052;2022-11-22T04:42:55;7.00;28.50
516;DHT22;244;48.508;9.052;2022-11-22T04:45:48;6.90;27.60
516;DHT22;244;48.508;9.052;2022-11-22T04:48:16;6.90;27.60
516;DHT22;244;48.508;9.052;2022-11-22T04:50:43;6.80;27.50
516;DHT22;244;48.508;9.052;2022-11-22T04:53:29;6.70;27.40
516;DHT22;244;48.508;9.052;2022-11-22T04:55:56;6.70;27.40
516;DHT22;244;48.508;9.052;2022-11-22T04:58:23;6.60;27.20
516;DHT22;244;48.508;9.052;2022-11-22T05:00:50;6.50;27.20
516;DHT22;244;48.508;9.052;2022-11-22T05:03:17;6.50;27.10
516;DHT22;244;48.508;9.052;2022-11-22T05:05:44;6.50;27.00
516;DHT22;244;48.508;9.052;2022-11-22T05:08:12;6.40;26.40
516;DHT22;244;48.508;9.052;2022-11-22T05:10:41;6.50;27.10
516;DHT22;244;48.508;9.052;2022-11-22T05:13:24;6.40;27.30
516;DHT22;244;48.508;9.052;2022-11-22T05:15:52;6.50;27.70
516;DHT22;244;48.508;9.052;2022-11-22T05:18:20;6.50;27.90
516;DHT22;244;48.508;9.052;2022-11-22T05:20:48;6.60;28.00
516;DHT22;244;48.508;9.052;2022-11-22T05:23:15;6.50;27.90
516;DHT22;244;48.508;9.052;2022-11-22T05:26:01;6.60;27.90
516;DHT22;244;48.508;9.052;2022-11-22T05:28:28;6.60;27.90
516;DHT22;244;48.508;9.052;2022-11-22T05:30:55;6.60;27.90
516;DHT22;244;48.508;9.052;2022-11-22T05:33:22;6.50;27.80
516;DHT22;244;48.508;9.052;2022-11-22T05:35:49;6.50;27.80
516;DHT22;244;48.508;9.052;2022-11-22T05:38:16;6.60;27.80
516;DHT22;244;48.508;9.052;2022-11-22T05:40:43;6.70;27.90
516;DHT22;244;48.508;9.052;2022-11-22T05:43:12;6.80;28.00
516;DHT22;244;48.508;9.052;2022-11-22T05:45:39;6.70;28.50
516;DHT22;244;48.508;9.052;2022-11-22T05:48:05;6.80;28.00
516;DHT22;244;48.508;9.052;2022-11-22T05:50:32;6.70;28.60
516;DHT22;244;48.508;9.052;2022-11-22T05:53:00;6.80;28.70
516;DHT22;244;48.508;9.052;2022-11-22T05:55:28;6.80;27.90
516;DHT22;244;48.508;9.052;2022-11-22T05:57:58;6.80;27.90
516;DHT22;244;48.508;9.052;2022-11-22T06:00:26;6.80;27.80
516;DHT22;244;48.508;9.052;2022-11-22T06:02:59;6.80;27.80
516;DHT22;244;48.508;9.052;2022-11-22T06:05:26;6.80;28.50
516;DHT22;244;48.508;9.052;2022-11-22T06:07:55;6.80;27.90
516;DHT22;244;48.508;9.052;2022-11-22T06:10:22;6.80;27.80
516;DHT22;244;48.508;9.052;2022-11-22T06:12:49;6.80;27.80
516;DHT22;244;48.508;9.052;2022-11-22T06:15:16;6.90;27.90
516;DHT22;244;48.508;9.052;2022-11-22T06:17:45;6.90;27.90
516;DHT22;244;48.508;9.052;2022-11-22T06:20:12;6.90;28.00
516;DHT22;244;48.508;9.052;2022-11-22T06:22:38;6.90;28.00
516;DHT22;244;48.508;9.052;2022-11-22T06:25:06;6.90;28.10
516;DHT22;244;48.508;9.052;2022-11-22T06:27:34;7.00;28.10
516;DHT22;244;48.508;9.052;2022-11-22T06:30:01;7.00;28.60
516;DHT22;244;48.508;9.052;2022-11-22T06:32:31;7.00;27.90
516;DHT22;244;48.508;9.052;2022-11-22T06:35:00;7.00;28.40
516;DHT22;244;48.508;9.052;2022-11-22T06:37:27;7.10;28.30
516;DHT22;244;48.508;9.052;2022-11-22T06:39:54;7.00;27.60
516;DHT22;244;48.508;9.052;2022-11-22T06:42:21;7.00;27.60
516;DHT22;244;48.508;9.052;2022-11-22T06:44:48;7.00;27.70
516;DHT22;244;48.508;9.052;2022-11-22T06:47:15;7.00;27.80
516;DHT22;244;48.508;9.052;2022-11-22T06:49:42;7.00;27.80
516;DHT22;244;48.508;9.052;2022-11-22T06:52:11;7.10;27.90
516;DHT22;244;48.508;9.052;2022-11-22T06:54:38;7.10;27.90
516;DHT22;244;48.508;9.052;2022-11-22T06:57:05;7.10;27.90
516;DHT22;244;48.508;9.052;2022-11-22T06:59:32;7.10;27.80
516;DHT22;244;48.508;9.052;2022-11-22T07:01:59;7.10;27.90
516;DHT22;244;48.508;9.052;2022-11-22T07:04:25;7.20;27.80
516;DHT22;244;48.508;9.052;2022-11-22T07:06:52;7.10;27.70
516;DHT22;244;48.508;9.052;2022-11-22T07:09:26;7.20;27.70
516;DHT22;244;48.508;9.052;2022-11-22T07:11:53;7.20;27.70
516;DHT22;244;48.508;9.052;2022-11-22T07:14:20;7.20;27.70
516;DHT22;244;48.508;9.052;2022-11-22T07:16:47;7.20;27.70
516;DHT22;244;48.508;9.052;2022-11-22T07:19:14;7.20;28.30
516;DHT22;244;48.508;9.052;2022-11-22T07:21:42;7.30;27.70
516;DHT22;244;48.508;9.052;2022-11-22T07:24:09;7.30;27.70
516;DHT22;244;48.508;9.052;2022-11-22T07:26:37;7.30;27.70
516;DHT22;244;48.508;9.052;2022-11-22T07:29:04;7.40;27.80
516;DHT22;244;48.508;9.052;2022-11-22T07:31:31;7.40;27.90
516;DHT22;244;48.508;9.052;2022-11-22T07:33:59;7.50;28.10
516;DHT22;244;48.508;9.052;2022-11-22T07:36:26;7.50;27.90
516;DHT22;244;48.508;9.052;2022-11-22T07:38:53;7.50;27.60
516;DHT22;244;48.508;9.052;2022-11-22T07:41:20;7.50;27.50
516;DHT22;244;48.508;9.052;2022-11-22T07:43:49;7.50;27.40
516;DHT22;244;48.508;9.052;2022-11-22T07:46:21;7.60;27.40
516;DHT22;244;48.508;9.052;2022-11-22T07:48:49;7.60;27.50
516;DHT22;244;48.508;9.052;2022-11-22T07:51:16;7.50;27.50
516;DHT22;244;48.508;9.052;2022-11-22T07:53:44;7.60;27.60
516;DHT22;244;48.508;9.052;2022-11-22T07:56:11;7.70;27.60
516;DHT22;244;48.508;9.052;2022-11-22T07:58:38;7.70;27.60
516;DHT22;244;48.508;9.052;2022-11-22T08:01:08;7.70;27.50
516;DHT22;244;48.508;9.052;2022-11-22T08:03:35;7.70;27.50
516;DHT22;244;48.508;9.052;2022-11-22T08:06:04;7.80;27.60
516;DHT22;244;48.508;9.052;2022-11-22T08:08:32;7.80;27.60
516;DHT22;244;48.508;9.052;2022-11-22T08:10:58;7.80;27.60
516;DHT22;244;48.508;9.052;2022-11-22T08:13:26;7.90;27.70
516;DHT22;244;48.508;9.052;2022-11-22T08:15:53;7.90;27.70
516;DHT22;244;48.508;9.052;2022-11-22T08:18:21;8.00;27.70
516;DHT22;244;48.508;9.052;2022-11-22T08:20:49;8.00;27.60
516;DHT22;244;48.508;9.052;2022-11-22T08:23:16;8.10;27.70
516;DHT22;244;48.508;9.052;2022-11-22T08:25:43;8.10;28.10
516;DHT22;244;48.508;9.052;2022-11-22T08:28:10;8.20;27.70
516;DHT22;244;48.508;9.052;2022-11-22T08:30:37;8.20;27.70
516;DHT22;244;48.508;9.052;2022-11-22T08:33:04;8.30;27.60
516;DHT22;244;48.508;9.052;2022-11-22T08:35:33;8.40;27.50
516;DHT22;244;48.508;9.052;2022-11-22T08:38:00;8.40;27.50
516;DHT22;244;48.508;9.052;2022-11-22T08:40:28;8.50;27.60
516;DHT22;244;48.508;9.052;2022-11-22T08:42:54;8.60;27.60
516;DHT22;244;48.508;9.052;2022-11-22T08:45:22;8.70;27.60
516;DHT22;244;48.508;9.052;2022-11-22T08:47:49;8.80;27.70
516;DHT22;244;48.508;9.052;2022-11-22T08:50:17;8.80;27.70
516;DHT22;244;48.508;9.052;2022-11-22T08:52:46;8.90;27.80
516;DHT22;244;48.508;9.052;2022-11-22T08:55:13;9.00;27.70
516;DHT22;244;48.508;9.052;2022-11-22T08:57:40;9.10;27.60
516;DHT22;244;48.508;9.052;2022-11-22T09:00:08;9.20;27.60
516;DHT22;244;48.508;9.052;2022-11-22T09:02:36;9.30;27.60
516;DHT22;244;48.508;9.052;2022-11-22T09:05:03;9.30;27.50
516;DHT22;244;48.508;9.052;2022-11-22T09:07:30;9.40;27.50
516;DHT22;244;48.508;9.052;2022-11-22T09:09:59;9.50;27.40
516;DHT22;244;48.508;9.052;2022-11-22T09:12:26;9.60;27.30
516;DHT22;244;48.508;9.052;2022-11-22T09:14:53;9.70;27.20
516;DHT22;244;48.508;9.052;2022-11-22T09:17:20;9.80;27.20
516;DHT22;244;48.508;9.052;2022-11-22T09:19:47;9.90;27.10
516;DHT22;244;48.508;9.052;2022-11-22T09:22:14;9.90;27.00
516;DHT22;244;48.508;9.052;2022-11-22T09:24:41;10.00;26.40
516;DHT22;244;48.508;9.052;2022-11-22T09:27:09;10.10;26.90
516;DHT22;244;48.508;9.052;2022-11-22T09:29:36;10.10;26.80
516;DHT22;244;48.508;9.052;2022-11-22T09:32:03;10.20;26.20
516;DHT22;244;48.508;9.052;2022-11-22T09:34:30;10.30;26.30
516;DHT22;244;48.508;9.052;2022-11-22T09:37:00;10.30;26.20
516;DHT22;244;48.508;9.052;2022-11-22T09:39:41;10.40;26.20
516;DHT22;244;48.508;9.052;2022-11-22T09:42:35;10.50;26.20
516;DHT22;244;48.508;9.052;2022-11-22T09:48:30;10.70;26.00
516;DHT22;244;48.508;9.052;2022-11-22T09:51:37;10.70;25.90
516;DHT22;244;48.508;9.052;2022-11-22T09:54:34;10.70;25.80
516;DHT22;244;48.508;9.052;2022-11-22T09:57:09;10.70;25.80
516;DHT22;244;48.508;9.052;2022-11-22T09:59:43;10.70;25.80
516;DHT22;244;48.508;9.052;2022-11-22T10:02:16;10.70;25.90
516;DHT22;244;48.508;9.052;2022-11-22T10:04:47;10.70;25.90
516;DHT22;244;48.508;9.052;2022-11-22T10:07:21;10.80;26.00
516;DHT22;244;48.508;9.052;2022-11-22T10:09:53;10.80;25.90
516;DHT22;244;48.508;9.052;2022-11-22T10:12:23;10.90;25.70
516;DHT22;244;48.508;9.052;2022-11-22T10:15:01;10.90;25.40
516;DHT22;244;48.508;9.052;2022-11-22T10:17:40;10.90;25.30
516;DHT22;244;48.508;9.052;2022-11-22T10:20:15;10.90;25.10
516;DHT22;244;48.508;9.052;2022-11-22T10:22:42;11.00;25.20
516;DHT22;244;48.508;9.052;2022-11-22T10:25:16;11.00;25.20
516;DHT22;244;48.508;9.052;2022-11-22T10:27:44;11.10;25.20
516;DHT22;244;48.508;9.052;2022-11-22T10:30:16;11.10;25.20
516;DHT22;244;48.508;9.052;2022-11-22T10:32:57;11.20;25.30
516;DHT22;244;48.508;9.052;2022-11-22T10:35:38;11.20;25.10
516;DHT22;244;48.508;9.052;2022-11-22T10:38:36;11.30;25.10
516;DHT22;244;48.508;9.052;2022-11-22T10:41:15;11.40;24.90
516;DHT22;244;48.508;9.052;2022-11-22T10:43:49;11.40;25.30
516;DHT22;244;48.508;9.052;2022-11-22T10:46:30;11.40;24.50
516;DHT22;244;48.508;9.052;2022-11-22T10:49:09;11.40;24.40
516;DHT22;244;48.508;9.052;2022-11-22T10:51:54;11.50;24.50
516;DHT22;244;48.508;9.052;2022-11-22T10:54:32;11.50;24.50
516;DHT22;244;48.508;9.052;2022-11-22T10:57:11;11.50;24.50
516;DHT22;244;48.508;9.052;2022-11-22T10:59:51;11.60;24.30
516;DHT22;244;48.508;9.052;2022-11-22T11:02:37;11.60;24.10
516;DHT22;244;48.508;9.052;2022-11-22T11:05:12;11.60;24.00
516;DHT22;244;48.508;9.052;2022-11-22T11:07:42;11.70;24.40
516;DHT22;244;48.508;9.052;2022-11-22T11:10:15;11.70;23.70
516;DHT22;244;48.508;9.052;2022-11-22T11:12:46;11.70;23.60
516;DHT22;244;48.508;9.052;2022-11-22T11:15:17;11.80;23.50
516;DHT22;244;48.508;9.052;2022-11-22T11:17:50;11.80;23.30
516;DHT22;244;48.508;9.052;2022-11-22T11:20:23;11.90;23.00
516;DHT22;244;48.508;9.052;2022-11-22T11:22:51;11.90;22.70
516;DHT22;244;48.508;9.052;2022-11-22T11:25:29;12.00;22.50
516;DHT22;244;48.508;9.052;2022-11-22T11:28:00;11.90;22.60
516;DHT22;244;48.508;9.052;2022-11-22T11:30:36;12.00;22.20
516;DHT22;244;48.508;9.052;2022-11-22T11:33:18;12.00;22.10
516;DHT22;244;48.508;9.052;2022-11-22T11:35:46;12.00;22.10
516;DHT22;244;48.508;9.052;2022-11-22T11:38:31;12.00;22.50
516;DHT22;244;48.508;9.052;2022-11-22T11:41:04;12.10;21.70
516;DHT22;244;48.508;9.052;2022-11-22T11:43:42;12.10;21.60
516;DHT22;244;48.508;9.052;2022-11-22T11:46:16;12.20;21.50
516;DHT22;244;48.508;9.052;2022-11-22T11:48:45;12.20;20.90
516;DHT22;244;48.508;9.052;2022-11-22T11:51:15;12.20;20.90
516;DHT22;244;48.508;9.052;2022-11-22T11:53:50;12.20;20.90
516;DHT22;244;48.508;9.052;2022-11-22T11:56:25;12.20;20.90
516;DHT22;244;48.508;9.052;2022-11-22T11:58:55;12.20;20.40
516;DHT22;244;48.508;9.052;2022-11-22T12:01:23;12.20;19.90
516;DHT22;244;48.508;9.052;2022-11-22T12:03:55;12.20;19.60
516;DHT22;244;48.508;9.052;2022-11-22T12:06:27;12.20;19.70
516;DHT22;244;48.508;9.052;2022-11-22T12:08:55;12.20;19.70
516;DHT22;244;48.508;9.052;2022-11-22T12:11:29;12.20;19.50
516;DHT22;244;48.508;9.052;2022-11-22T12:13:59;12.20;19.40
516;DHT22;244;48.508;9.052;2022-11-22T12:16:30;12.20;19.80
516;DHT22;244;48.508;9.052;2022-11-22T12:19:08;12.20;19.00
516;DHT22;244;48.508;9.052;2022-11-22T12:21:43;12.20;18.90
516;DHT22;244;48.508;9.052;2022-11-22T12:24:20;12.20;18.90
516;DHT22;244;48.508;9.052;2022-11-22T12:26:49;12.20;19.00
516;DHT22;244;48.508;9.052;2022-11-22T12:29:16;12.20;19.00
516;DHT22;244;48.508;9.052;2022-11-22T12:31:46;12.10;18.80
516;DHT22;244;48.508;9.052;2022-11-22T12:34:21;12.10;18.70
516;DHT22;244;48.508;9.052;2022-11-22T12:36:53;12.10;18.50
516;DHT22;244;48.508;9.052;2022-11-22T12:39:26;12.00;18.30
516;DHT22;244;48.508;9.052;2022-11-22T12:41:58;12.00;18.20
516;DHT22;244;48.508;9.052;2022-11-22T12:44:28;12.00;18.00
516;DHT22;244;48.508;9.052;2022-11-22T12:47:01;12.00;18.00
516;DHT22;244;48.508;9.052;2022-11-22T12:49:36;11.90;17.90
516;DHT22;244;48.508;9.052;2022-11-22T12:52:11;12.00;17.80
516;DHT22;244;48.508;9.052;2022-11-22T12:54:44;11.90;17.60
516;DHT22;244;48.508;9.052;2022-11-22T12:57:18;11.80;17.40
516;DHT22;244;48.508;9.052;2022-11-22T12:59:52;11.70;17.10
516;DHT22;244;48.508;9.052;2022-11-22T13:02:28;11.60;16.80
516;DHT22;244;48.508;9.052;2022-11-22T13:05:01;11.60;16.70
516;DHT22;244;48.508;9.052;2022-11-22T13:07:41;11.50;16.60
516;DHT22;244;48.508;9.052;2022-11-22T13:10:21;11.50;16.60
516;DHT22;244;48.508;9.052;2022-11-22T13:12:52;11.50;16.50
516;DHT22;244;48.508;9.052;2022-11-22T13:15:25;11.50;17.10
516;DHT22;244;48.508;9.052;2022-11-22T13:17:53;11.40;16.30
516;DHT22;244;48.508;9.052;2022-11-22T13:20:23;11.40;16.30
516;DHT22;244;48.508;9.052;2022-11-22T13:22:58;11.40;16.30
516;DHT22;244;48.508;9.052;2022-11-22T13:25:41;11.40;16.30
516;DHT22;244;48.508;9.052;2022-11-22T13:28:13;11.40;16.20
516;DHT22;244;48.508;9.052;2022-11-22T13:31:03;11.30;16.00
516;DHT22;244;48.508;9.052;2022-11-22T13:33:31;11.20;16.50
516;DHT22;244;48.508;9.052;2022-11-22T13:39:17;11.30;15.80
516;DHT22;244;48.508;9.052;2022-11-22T13:42:02;11.30;15.70
516;DHT22;244;48.508;9.052;2022-11-22T13:44:49;11.20;15.70
516;DHT22;244;48.508;9.052;2022-11-22T13:47:37;11.30;15.70
516;DHT22;244;48.508;9.052;2022-11-22T13:53:20;11.20;15.70
516;DHT22;244;48.508;9.052;2022-11-22T13:55:48;11.20;15.70
516;DHT22;244;48.508;9.052;2022-11-22T13:58:49;11.20;15.70
516;DHT22;244;48.508;9.052;2022-11-22T14:01:53;11.20;15.70
516;DHT22;244;48.508;9.052;2022-11-22T14:04:39;11.20;15.70
516;DHT22;244;48.508;9.052;2022-11-22T14:07:26;11.20;15.60
516;DHT22;244;48.508;9.052;2022-11-22T14:09:57;11.10;15.20
516;DHT22;244;48.508;9.052;2022-11-22T14:18:54;11.00;15.20
516;DHT22;244;48.508;9.052;2022-11-22T14:21:38;10.90;15.10
516;DHT22;244;48.508;9.052;2022-11-22T14:24:13;10.90;14.90
516;DHT22;244;48.508;9.052;2022-11-22T14:26:48;10.80;14.90
516;DHT22;244;48.508;9.052;2022-11-22T14:29:46;10.70;14.90
516;DHT22;244;48.508;9.052;2022-11-22T14:32:17;10.70;15.00
516;DHT22;244;48.508;9.052;2022-11-22T14:37:59;10.60;15.10
516;DHT22;244;48.508;9.052;2022-11-22T14:40:35;10.60;15.80
516;DHT22;244;48.508;9.052;2022-11-22T14:43:26;10.60;15.30
516;DHT22;244;48.508;9.052;2022-11-22T14:45:57;10.50;15.20
516;DHT22;244;48.508;9.052;2022-11-22T14:48:30;10.50;15.20
516;DHT22;244;48.508;9.052;2022-11-22T14:51:05;10.40;15.10
516;DHT22;244;48.508;9.052;2022-11-22T14:53:38;10.40;15.20
516;DHT22;244;48.508;9.052;2022-11-22T14:56:14;10.40;15.70
516;DHT22;244;48.508;9.052;2022-11-22T14:58:50;10.30;15.10
516;DHT22;244;48.508;9.052;2022-11-22T15:01:38;10.30;15.10
516;DHT22;244;48.508;9.052;2022-11-22T15:04:27;10.30;15.10
516;DHT22;244;48.508;9.052;2022-11-22T15:07:07;10.20;15.00
516;DHT22;244;48.508;9.052;2022-11-22T15:09:54;10.20;15.00
516;DHT22;244;48.508;9.052;2022-11-22T15:12:49;10.10;14.90
516;DHT22;244;48.508;9.052;2022-11-22T15:15:28;10.10;14.90
516;DHT22;244;48.508;9.052;2022-11-22T15:18:04;10.00;14.90
516;DHT22;244;48.508;9.052;2022-11-22T15:20:34;10.00;15.70
516;DHT22;244;48.508;9.052;2022-11-22T15:23:11;9.90;15.90
516;DHT22;244;48.508;9.052;2022-11-22T15:25:40;9.90;15.90
516;DHT22;244;48.508;9.052;2022-11-22T15:28:12;9.80;15.90
516;DHT22;244;48.508;9.052;2022-11-22T15:30:39;9.80;16.10
516;DHT22;244;48.508;9.052;2022-11-22T15:33:20;9.80;16.10
516;DHT22;244;48.508;9.052;2022-11-22T15:36:01;9.80;16.20
516;DHT22;244;48.508;9.052;2022-11-22T15:38:29;9.80;16.80
516;DHT22;244;48.508;9.052;2022-11-22T15:40:58;9.80;16.30
516;DHT22;244;48.508;9.052;2022-11-22T15:43:29;9.80;16.30
516;DHT22;244;48.508;9.052;2022-11-22T15:45:57;9.80;16.30
516;DHT22;244;48.508;9.052;2022-11-22T15:48:28;9.70;16.40
516;DHT22;244;48.508;9.052;2022-11-22T15:51:03;9.70;16.50
516;DHT22;244;48.508;9.052;2022-11-22T15:53:31;9.70;16.50
516;DHT22;244;48.508;9.052;2022-11-22T15:56:03;9.70;17.10
516;DHT22;244;48.508;9.052;2022-11-22T15:58:33;9.70;16.50
516;DHT22;244;48.508;9.052;2022-11-22T16:01:03;9.60;17.00
516;DHT22;244;48.508;9.052;2022-11-22T16:03:36;9.60;16.50
516;DHT22;244;48.508;9.052;2022-11-22T16:06:05;9.60;16.50
516;DHT22;244;48.508;9.052;2022-11-22T16:08:33;9.60;16.50
516;DHT22;244;48.508;9.052;2022-11-22T16:11:03;9.50;16.50
516;DHT22;244;48.508;9.052;2022-11-22T16:13:33;9.50;16.50
516;DHT22;244;48.508;9.052;2022-11-22T16:16:17;9.40;16.50
516;DHT22;244;48.508;9.052;2022-11-22T16:18:45;9.50;16.60
516;DHT22;244;48.508;9.052;2022-11-22T16:21:21;9.50;16.60
516;DHT22;244;48.508;9.052;2022-11-22T16:24:08;9.50;16.60
516;DHT22;244;48.508;9.052;2022-11-22T16:26:38;9.40;16.60
516;DHT22;244;48.508;9.052;2022-11-22T16:29:23;9.40;16.60
516;DHT22;244;48.508;9.052;2022-11-22T16:31:59;9.40;16.60
516;DHT22;244;48.508;9.052;2022-11-22T16:34:26;9.40;16.60
516;DHT22;244;48.508;9.052;2022-11-22T16:36:53;9.40;16.60
516;DHT22;244;48.508;9.052;2022-11-22T16:39:23;9.40;16.60
516;DHT22;244;48.508;9.052;2022-11-22T16:41:55;9.40;16.80
516;DHT22;244;48.508;9.052;2022-11-22T16:44:23;9.30;16.70
516;DHT22;244;48.508;9.052;2022-11-22T16:46:50;9.30;16.70
516;DHT22;244;48.508;9.052;2022-11-22T16:49:18;9.40;16.70
516;DHT22;244;48.508;9.052;2022-11-22T16:51:46;9.30;16.60
516;DHT22;244;48.508;9.052;2022-11-22T16:54:14;9.40;16.70
516;DHT22;244;48.508;9.052;2022-11-22T16:56:46;9.30;16.60
516;DHT22;244;48.508;9.052;2022-11-22T16:59:19;9.30;16.70
516;DHT22;244;48.508;9.052;2022-11-22T17:01:46;9.30;16.70
516;DHT22;244;48.508;9.052;2022-11-22T17:04:20;9.30;16.70
516;DHT22;244;48.508;9.052;2022-11-22T17:06:47;9.30;16.80
516;DHT22;244;48.508;9.052;2022-11-22T17:09:14;9.30;16.80
516;DHT22;244;48.508;9.052;2022-11-22T17:11:42;9.30;16.80
516;DHT22;244;48.508;9.052;2022-11-22T17:14:12;9.30;17.40
516;DHT22;244;48.508;9.052;2022-11-22T17:16:41;9.30;16.80
516;DHT22;244;48.508;9.052;2022-11-22T17:19:10;9.40;16.80
516;DHT22;244;48.508;9.052;2022-11-22T17:21:37;9.40;16.80
516;DHT22;244;48.508;9.052;2022-11-22T17:24:06;9.40;16.80
516;DHT22;244;48.508;9.052;2022-11-22T17:26:38;9.40;16.80
516;DHT22;244;48.508;9.052;2022-11-22T17:29:05;9.40;16.80
516;DHT22;244;48.508;9.052;2022-11-22T17:31:32;9.50;17.50